Terminal Aerodrome Forecast
Issued by NWS

Home | Current Version | Previous Version | Text Only | Print | Product List | Glossary On
Versions: 1 2 3 4 5 6 7 8 9 10 11 12
000
FTUS45 KGJT 181737
TAFRIL
TAF
KRIL 181737Z 1818/1918 VRB04KT P6SM SKC
     FM182100 27006KT P6SM FEW200
     FM190200 VRB04KT P6SM FEW200
     FM191400 VRB04KT P6SM SCT200=

USA.gov is the U.S. government's official web portal to all federal, state and local government web resources and services.